Castle Rock, South Dakota
Current Conditions -  °F | °C
As of 9:55 AM on Thursday 23 Oct 2014 (Local Time) from KSPF Reporting Station
Clear Clear  
Wind Chill: 57°   Ceiling: Unl
Heat Index: 57°   Visibility: 10mi
Dew Point: 23°   Wind: 0mph
Humidity: 27%   Direction: NA
Pressure: 29.98"   Gusts: NA
Location:  44.9094°N, 103.193°W
Report Text: KSPF 231555Z AUTO 00000KT 10SM CLR 14/M05 A2998 RMK AO2
Loading
Personal Weather Stations






























Interactive Weather Map
Tropical Storm Tracking
New forecast layout! Learn more

10-Day Weather Forecast

Advertisements
Track Severe Weather on mobile